sensor_id;sensor_type;location;lat;lon;timestamp;P1;durP1;ratioP1;P2;durP2;ratioP2
3769;SDS011;1900;48.890;9.190;2022-08-14T00:01:16;5.37;;;3.73;;
3769;SDS011;1900;48.890;9.190;2022-08-14T00:03:42;9.07;;;4.20;;
3769;SDS011;1900;48.890;9.190;2022-08-14T00:06:08;5.27;;;3.60;;
3769;SDS011;1900;48.890;9.190;2022-08-14T00:08:34;5.53;;;3.90;;
3769;SDS011;1900;48.890;9.190;2022-08-14T00:10:59;4.07;;;3.50;;
3769;SDS011;1900;48.890;9.190;2022-08-14T00:13:26;5.80;;;4.00;;
3769;SDS011;1900;48.890;9.190;2022-08-14T00:15:53;3.87;;;3.47;;
3769;SDS011;1900;48.890;9.190;2022-08-14T00:18:21;5.13;;;3.67;;
3769;SDS011;1900;48.890;9.190;2022-08-14T00:20:48;4.53;;;4.00;;
3769;SDS011;1900;48.890;9.190;2022-08-14T00:23:14;4.10;;;3.50;;
3769;SDS011;1900;48.890;9.190;2022-08-14T00:25:42;10.03;;;3.20;;
3769;SDS011;1900;48.890;9.190;2022-08-14T00:28:18;3.57;;;3.27;;
3769;SDS011;1900;48.890;9.190;2022-08-14T00:30:50;5.60;;;3.90;;
3769;SDS011;1900;48.890;9.190;2022-08-14T00:33:17;6.70;;;4.00;;
3769;SDS011;1900;48.890;9.190;2022-08-14T00:35:43;4.80;;;3.80;;
3769;SDS011;1900;48.890;9.190;2022-08-14T00:38:09;4.83;;;3.53;;
3769;SDS011;1900;48.890;9.190;2022-08-14T00:40:35;4.40;;;3.83;;
3769;SDS011;1900;48.890;9.190;2022-08-14T00:43:01;5.17;;;4.07;;
3769;SDS011;1900;48.890;9.190;2022-08-14T00:45:26;3.80;;;3.40;;
3769;SDS011;1900;48.890;9.190;2022-08-14T00:47:52;5.70;;;4.40;;
3769;SDS011;1900;48.890;9.190;2022-08-14T00:50:19;6.80;;;3.73;;
3769;SDS011;1900;48.890;9.190;2022-08-14T00:52:47;6.17;;;4.30;;
3769;SDS011;1900;48.890;9.190;2022-08-14T00:55:14;5.00;;;3.63;;
3769;SDS011;1900;48.890;9.190;2022-08-14T00:57:40;5.80;;;3.50;;
3769;SDS011;1900;48.890;9.190;2022-08-14T01:00:13;5.73;;;4.07;;
3769;SDS011;1900;48.890;9.190;2022-08-14T01:02:40;5.70;;;3.70;;
3769;SDS011;1900;48.890;9.190;2022-08-14T01:05:08;7.47;;;3.67;;
3769;SDS011;1900;48.890;9.190;2022-08-14T01:07:48;3.70;;;3.23;;
3769;SDS011;1900;48.890;9.190;2022-08-14T01:10:16;10.37;;;3.53;;
3769;SDS011;1900;48.890;9.190;2022-08-14T01:12:42;8.97;;;3.50;;
3769;SDS011;1900;48.890;9.190;2022-08-14T01:15:08;7.27;;;3.50;;
3769;SDS011;1900;48.890;9.190;2022-08-14T01:17:34;2.90;;;2.70;;
3769;SDS011;1900;48.890;9.190;2022-08-14T01:20:19;3.57;;;2.70;;
3769;SDS011;1900;48.890;9.190;2022-08-14T01:23:05;3.50;;;3.20;;
3769;SDS011;1900;48.890;9.190;2022-08-14T01:25:34;5.93;;;3.40;;
3769;SDS011;1900;48.890;9.190;2022-08-14T01:28:02;4.10;;;3.40;;
3769;SDS011;1900;48.890;9.190;2022-08-14T01:30:28;11.00;;;3.30;;
3769;SDS011;1900;48.890;9.190;2022-08-14T01:32:56;3.00;;;2.80;;
3769;SDS011;1900;48.890;9.190;2022-08-14T01:35:22;3.90;;;3.10;;
3769;SDS011;1900;48.890;9.190;2022-08-14T01:37:52;6.67;;;3.60;;
3769;SDS011;1900;48.890;9.190;2022-08-14T01:40:21;4.77;;;3.13;;
3769;SDS011;1900;48.890;9.190;2022-08-14T01:42:47;7.47;;;3.80;;
3769;SDS011;1900;48.890;9.190;2022-08-14T01:45:13;8.93;;;3.20;;
3769;SDS011;1900;48.890;9.190;2022-08-14T01:47:39;3.30;;;3.00;;
3769;SDS011;1900;48.890;9.190;2022-08-14T01:50:06;3.73;;;2.80;;
3769;SDS011;1900;48.890;9.190;2022-08-14T01:52:34;3.77;;;2.70;;
3769;SDS011;1900;48.890;9.190;2022-08-14T01:55:03;3.50;;;2.70;;
3769;SDS011;1900;48.890;9.190;2022-08-14T01:57:31;5.20;;;3.37;;
3769;SDS011;1900;48.890;9.190;2022-08-14T02:00:02;2.83;;;2.63;;
3769;SDS011;1900;48.890;9.190;2022-08-14T02:02:40;3.57;;;2.90;;
3769;SDS011;1900;48.890;9.190;2022-08-14T02:05:07;6.90;;;3.07;;
3769;SDS011;1900;48.890;9.190;2022-08-14T02:07:37;3.63;;;3.13;;
3769;SDS011;1900;48.890;9.190;2022-08-14T02:10:04;5.87;;;3.10;;
3769;SDS011;1900;48.890;9.190;2022-08-14T02:12:31;3.53;;;3.00;;
3769;SDS011;1900;48.890;9.190;2022-08-14T02:14:56;4.77;;;3.27;;
3769;SDS011;1900;48.890;9.190;2022-08-14T02:17:25;6.60;;;3.17;;
3769;SDS011;1900;48.890;9.190;2022-08-14T02:19:52;4.10;;;3.50;;
3769;SDS011;1900;48.890;9.190;2022-08-14T02:22:18;3.43;;;3.07;;
3769;SDS011;1900;48.890;9.190;2022-08-14T02:24:44;4.87;;;3.67;;
3769;SDS011;1900;48.890;9.190;2022-08-14T02:27:10;9.23;;;3.80;;
3769;SDS011;1900;48.890;9.190;2022-08-14T02:29:36;5.03;;;3.80;;
3769;SDS011;1900;48.890;9.190;2022-08-14T02:32:02;8.90;;;3.70;;
3769;SDS011;1900;48.890;9.190;2022-08-14T02:34:32;4.47;;;3.77;;
3769;SDS011;1900;48.890;9.190;2022-08-14T02:37:08;7.33;;;3.60;;
3769;SDS011;1900;48.890;9.190;2022-08-14T02:39:42;4.40;;;3.30;;
3769;SDS011;1900;48.890;9.190;2022-08-14T02:42:10;5.70;;;3.67;;
3769;SDS011;1900;48.890;9.190;2022-08-14T02:44:42;5.27;;;3.67;;
3769;SDS011;1900;48.890;9.190;2022-08-14T02:47:09;4.60;;;3.57;;
3769;SDS011;1900;48.890;9.190;2022-08-14T02:49:35;4.53;;;3.70;;
3769;SDS011;1900;48.890;9.190;2022-08-14T02:52:01;5.13;;;4.07;;
3769;SDS011;1900;48.890;9.190;2022-08-14T02:54:30;6.07;;;3.90;;
3769;SDS011;1900;48.890;9.190;2022-08-14T02:56:58;5.37;;;3.87;;
3769;SDS011;1900;48.890;9.190;2022-08-14T02:59:25;4.63;;;3.80;;
3769;SDS011;1900;48.890;9.190;2022-08-14T03:01:57;6.00;;;4.00;;
3769;SDS011;1900;48.890;9.190;2022-08-14T03:04:23;7.23;;;3.70;;
3769;SDS011;1900;48.890;9.190;2022-08-14T03:06:53;4.50;;;3.53;;
3769;SDS011;1900;48.890;9.190;2022-08-14T03:09:19;3.90;;;3.50;;
3769;SDS011;1900;48.890;9.190;2022-08-14T03:11:45;5.50;;;3.97;;
3769;SDS011;1900;48.890;9.190;2022-08-14T03:14:11;6.73;;;4.10;;
3769;SDS011;1900;48.890;9.190;2022-08-14T03:16:38;4.30;;;3.87;;
3769;SDS011;1900;48.890;9.190;2022-08-14T03:19:06;4.53;;;4.10;;
3769;SDS011;1900;48.890;9.190;2022-08-14T03:21:34;4.70;;;3.80;;
3769;SDS011;1900;48.890;9.190;2022-08-14T03:24:01;4.37;;;3.63;;
3769;SDS011;1900;48.890;9.190;2022-08-14T03:26:37;3.80;;;3.50;;
3769;SDS011;1900;48.890;9.190;2022-08-14T03:29:07;4.07;;;3.60;;
3769;SDS011;1900;48.890;9.190;2022-08-14T03:31:34;7.47;;;4.37;;
3769;SDS011;1900;48.890;9.190;2022-08-14T03:34:00;6.80;;;4.63;;
3769;SDS011;1900;48.890;9.190;2022-08-14T03:36:28;5.83;;;3.93;;
3769;SDS011;1900;48.890;9.190;2022-08-14T03:38:56;3.83;;;3.50;;
3769;SDS011;1900;48.890;9.190;2022-08-14T03:41:24;6.87;;;3.37;;
3769;SDS011;1900;48.890;9.190;2022-08-14T03:43:55;7.13;;;3.73;;
3769;SDS011;1900;48.890;9.190;2022-08-14T03:46:22;5.10;;;4.13;;
3769;SDS011;1900;48.890;9.190;2022-08-14T03:48:51;3.87;;;3.47;;
3769;SDS011;1900;48.890;9.190;2022-08-14T03:51:18;4.23;;;3.83;;
3769;SDS011;1900;48.890;9.190;2022-08-14T03:53:45;4.97;;;3.77;;
3769;SDS011;1900;48.890;9.190;2022-08-14T03:56:12;5.37;;;4.27;;
3769;SDS011;1900;48.890;9.190;2022-08-14T03:58:46;4.57;;;3.83;;
3769;SDS011;1900;48.890;9.190;2022-08-14T04:01:14;5.77;;;4.17;;
3769;SDS011;1900;48.890;9.190;2022-08-14T04:03:44;11.50;;;4.27;;
3769;SDS011;1900;48.890;9.190;2022-08-14T04:06:10;9.20;;;3.83;;
3769;SDS011;1900;48.890;9.190;2022-08-14T04:08:39;7.60;;;4.10;;
3769;SDS011;1900;48.890;9.190;2022-08-14T04:11:06;5.57;;;3.70;;
3769;SDS011;1900;48.890;9.190;2022-08-14T04:13:34;6.20;;;3.90;;
3769;SDS011;1900;48.890;9.190;2022-08-14T04:16:02;7.70;;;4.57;;
3769;SDS011;1900;48.890;9.190;2022-08-14T04:18:31;4.40;;;4.00;;
3769;SDS011;1900;48.890;9.190;2022-08-14T04:20:57;4.50;;;3.50;;
3769;SDS011;1900;48.890;9.190;2022-08-14T04:23:23;4.10;;;3.67;;
3769;SDS011;1900;48.890;9.190;2022-08-14T04:25:49;4.90;;;3.80;;
3769;SDS011;1900;48.890;9.190;2022-08-14T04:28:18;4.50;;;3.97;;
3769;SDS011;1900;48.890;9.190;2022-08-14T04:30:45;3.60;;;3.30;;
3769;SDS011;1900;48.890;9.190;2022-08-14T04:33:11;4.70;;;4.17;;
3769;SDS011;1900;48.890;9.190;2022-08-14T04:35:38;4.20;;;3.70;;
3769;SDS011;1900;48.890;9.190;2022-08-14T04:38:05;5.07;;;4.57;;
3769;SDS011;1900;48.890;9.190;2022-08-14T04:40:49;6.33;;;4.40;;
3769;SDS011;1900;48.890;9.190;2022-08-14T04:43:34;4.10;;;3.80;;
3769;SDS011;1900;48.890;9.190;2022-08-14T04:46:02;6.40;;;3.90;;
3769;SDS011;1900;48.890;9.190;2022-08-14T04:48:28;4.90;;;3.90;;
3769;SDS011;1900;48.890;9.190;2022-08-14T04:50:54;8.60;;;4.40;;
3769;SDS011;1900;48.890;9.190;2022-08-14T04:53:21;6.80;;;4.33;;
3769;SDS011;1900;48.890;9.190;2022-08-14T04:55:51;4.93;;;4.00;;
3769;SDS011;1900;48.890;9.190;2022-08-14T04:58:18;6.77;;;3.90;;
3769;SDS011;1900;48.890;9.190;2022-08-14T05:00:47;4.27;;;3.90;;
3769;SDS011;1900;48.890;9.190;2022-08-14T05:03:19;4.90;;;4.40;;
3769;SDS011;1900;48.890;9.190;2022-08-14T05:05:46;4.73;;;3.90;;
3769;SDS011;1900;48.890;9.190;2022-08-14T05:08:13;5.43;;;4.10;;
3769;SDS011;1900;48.890;9.190;2022-08-14T05:10:40;5.83;;;4.07;;
3769;SDS011;1900;48.890;9.190;2022-08-14T05:13:08;4.37;;;3.70;;
3769;SDS011;1900;48.890;9.190;2022-08-14T05:18:02;4.93;;;4.20;;
3769;SDS011;1900;48.890;9.190;2022-08-14T05:20:33;6.73;;;4.03;;
3769;SDS011;1900;48.890;9.190;2022-08-14T05:22:59;5.07;;;4.40;;
3769;SDS011;1900;48.890;9.190;2022-08-14T05:25:26;5.17;;;4.23;;
3769;SDS011;1900;48.890;9.190;2022-08-14T05:27:52;6.53;;;4.07;;
3769;SDS011;1900;48.890;9.190;2022-08-14T05:30:17;6.73;;;4.57;;
3769;SDS011;1900;48.890;9.190;2022-08-14T05:32:43;4.50;;;4.10;;
3769;SDS011;1900;48.890;9.190;2022-08-14T05:35:09;6.13;;;4.80;;
3769;SDS011;1900;48.890;9.190;2022-08-14T05:37:35;8.37;;;5.70;;
3769;SDS011;1900;48.890;9.190;2022-08-14T05:40:03;7.73;;;5.13;;
3769;SDS011;1900;48.890;9.190;2022-08-14T05:42:29;7.73;;;4.30;;
3769;SDS011;1900;48.890;9.190;2022-08-14T05:44:56;5.47;;;4.60;;
3769;SDS011;1900;48.890;9.190;2022-08-14T05:47:22;4.67;;;4.13;;
3769;SDS011;1900;48.890;9.190;2022-08-14T05:49:48;4.90;;;4.37;;
3769;SDS011;1900;48.890;9.190;2022-08-14T05:52:14;5.67;;;4.90;;
3769;SDS011;1900;48.890;9.190;2022-08-14T05:54:40;5.27;;;4.63;;
3769;SDS011;1900;48.890;9.190;2022-08-14T05:57:06;5.10;;;4.60;;
3769;SDS011;1900;48.890;9.190;2022-08-14T05:59:32;5.57;;;4.20;;
3769;SDS011;1900;48.890;9.190;2022-08-14T06:01:57;13.00;;;5.00;;
3769;SDS011;1900;48.890;9.190;2022-08-14T06:04:23;4.27;;;3.87;;
3769;SDS011;1900;48.890;9.190;2022-08-14T06:06:49;7.13;;;5.10;;
3769;SDS011;1900;48.890;9.190;2022-08-14T06:09:14;5.30;;;4.80;;
3769;SDS011;1900;48.890;9.190;2022-08-14T06:11:40;4.60;;;4.20;;
3769;SDS011;1900;48.890;9.190;2022-08-14T06:14:06;6.73;;;5.17;;
3769;SDS011;1900;48.890;9.190;2022-08-14T06:16:32;4.47;;;4.07;;
3769;SDS011;1900;48.890;9.190;2022-08-14T06:18:57;8.00;;;5.03;;
3769;SDS011;1900;48.890;9.190;2022-08-14T06:21:24;7.13;;;4.60;;
3769;SDS011;1900;48.890;9.190;2022-08-14T06:23:49;5.93;;;4.50;;
3769;SDS011;1900;48.890;9.190;2022-08-14T06:26:15;4.50;;;4.10;;
3769;SDS011;1900;48.890;9.190;2022-08-14T06:28:41;5.83;;;4.40;;
3769;SDS011;1900;48.890;9.190;2022-08-14T06:31:07;6.83;;;4.60;;
3769;SDS011;1900;48.890;9.190;2022-08-14T06:33:32;8.57;;;5.47;;
3769;SDS011;1900;48.890;9.190;2022-08-14T06:35:58;4.70;;;4.20;;
3769;SDS011;1900;48.890;9.190;2022-08-14T06:38:24;6.70;;;4.00;;
3769;SDS011;1900;48.890;9.190;2022-08-14T06:40:50;4.50;;;3.70;;
3769;SDS011;1900;48.890;9.190;2022-08-14T06:43:16;4.30;;;3.90;;
3769;SDS011;1900;48.890;9.190;2022-08-14T06:45:44;5.70;;;3.97;;
3769;SDS011;1900;48.890;9.190;2022-08-14T06:48:21;6.83;;;3.53;;
3769;SDS011;1900;48.890;9.190;2022-08-14T06:50:48;4.97;;;3.63;;
3769;SDS011;1900;48.890;9.190;2022-08-14T06:53:15;4.90;;;4.03;;
3769;SDS011;1900;48.890;9.190;2022-08-14T06:55:42;6.00;;;4.00;;
3769;SDS011;1900;48.890;9.190;2022-08-14T06:58:11;6.33;;;3.63;;
3769;SDS011;1900;48.890;9.190;2022-08-14T07:00:38;7.13;;;4.40;;
3769;SDS011;1900;48.890;9.190;2022-08-14T07:03:04;6.17;;;4.10;;
3769;SDS011;1900;48.890;9.190;2022-08-14T07:05:49;5.77;;;4.30;;
3769;SDS011;1900;48.890;9.190;2022-08-14T07:08:16;8.50;;;4.07;;
3769;SDS011;1900;48.890;9.190;2022-08-14T07:10:44;3.80;;;3.50;;
3769;SDS011;1900;48.890;9.190;2022-08-14T07:13:13;5.57;;;3.80;;
3769;SDS011;1900;48.890;9.190;2022-08-14T07:15:39;4.10;;;3.30;;
3769;SDS011;1900;48.890;9.190;2022-08-14T07:18:09;5.33;;;3.80;;
3769;SDS011;1900;48.890;9.190;2022-08-14T07:20:36;5.87;;;4.13;;
3769;SDS011;1900;48.890;9.190;2022-08-14T07:23:03;6.17;;;3.50;;
3769;SDS011;1900;48.890;9.190;2022-08-14T07:25:30;4.17;;;3.50;;
3769;SDS011;1900;48.890;9.190;2022-08-14T07:27:56;12.30;;;4.40;;
3769;SDS011;1900;48.890;9.190;2022-08-14T07:30:22;4.93;;;3.60;;
3769;SDS011;1900;48.890;9.190;2022-08-14T07:32:49;4.07;;;3.67;;
3769;SDS011;1900;48.890;9.190;2022-08-14T07:35:14;4.20;;;3.43;;
3769;SDS011;1900;48.890;9.190;2022-08-14T07:37:40;5.10;;;3.60;;
3769;SDS011;1900;48.890;9.190;2022-08-14T07:40:06;3.53;;;3.23;;
3769;SDS011;1900;48.890;9.190;2022-08-14T07:42:33;10.90;;;3.37;;
3769;SDS011;1900;48.890;9.190;2022-08-14T07:44:59;4.10;;;3.23;;
3769;SDS011;1900;48.890;9.190;2022-08-14T07:47:25;3.70;;;3.40;;
3769;SDS011;1900;48.890;9.190;2022-08-14T07:50:01;4.83;;;3.00;;
3769;SDS011;1900;48.890;9.190;2022-08-14T07:52:32;3.63;;;3.13;;
3769;SDS011;1900;48.890;9.190;2022-08-14T07:54:58;4.00;;;2.97;;
3769;SDS011;1900;48.890;9.190;2022-08-14T07:57:24;3.50;;;3.20;;
3769;SDS011;1900;48.890;9.190;2022-08-14T07:59:51;4.10;;;2.90;;
3769;SDS011;1900;48.890;9.190;2022-08-14T08:02:17;3.47;;;3.13;;
3769;SDS011;1900;48.890;9.190;2022-08-14T08:04:44;3.83;;;3.07;;
3769;SDS011;1900;48.890;9.190;2022-08-14T08:07:11;3.57;;;3.20;;
3769;SDS011;1900;48.890;9.190;2022-08-14T08:09:40;9.63;;;3.10;;
3769;SDS011;1900;48.890;9.190;2022-08-14T08:12:12;7.93;;;3.80;;
3769;SDS011;1900;48.890;9.190;2022-08-14T08:14:41;3.17;;;2.83;;
3769;SDS011;1900;48.890;9.190;2022-08-14T08:17:08;5.30;;;3.50;;
3769;SDS011;1900;48.890;9.190;2022-08-14T08:19:35;5.57;;;3.57;;
3769;SDS011;1900;48.890;9.190;2022-08-14T08:22:02;9.20;;;2.93;;
3769;SDS011;1900;48.890;9.190;2022-08-14T08:24:28;4.37;;;3.37;;
3769;SDS011;1900;48.890;9.190;2022-08-14T08:26:55;4.70;;;2.80;;
3769;SDS011;1900;48.890;9.190;2022-08-14T08:29:21;2.80;;;2.60;;
3769;SDS011;1900;48.890;9.190;2022-08-14T08:31:49;7.97;;;3.07;;
3769;SDS011;1900;48.890;9.190;2022-08-14T08:34:16;3.27;;;2.97;;
3769;SDS011;1900;48.890;9.190;2022-08-14T08:36:43;4.07;;;2.90;;
3769;SDS011;1900;48.890;9.190;2022-08-14T08:39:09;3.43;;;3.13;;
3769;SDS011;1900;48.890;9.190;2022-08-14T08:41:53;3.13;;;2.83;;
3769;SDS011;1900;48.890;9.190;2022-08-14T08:44:20;2.77;;;2.57;;
3769;SDS011;1900;48.890;9.190;2022-08-14T08:46:56;3.23;;;2.70;;
3769;SDS011;1900;48.890;9.190;2022-08-14T08:49:22;3.30;;;2.90;;
3769;SDS011;1900;48.890;9.190;2022-08-14T08:52:00;6.30;;;3.00;;
3769;SDS011;1900;48.890;9.190;2022-08-14T08:54:28;3.87;;;2.60;;
3769;SDS011;1900;48.890;9.190;2022-08-14T08:56:53;3.40;;;2.80;;
3769;SDS011;1900;48.890;9.190;2022-08-14T09:01:52;2.70;;;2.50;;
3769;SDS011;1900;48.890;9.190;2022-08-14T09:07:02;6.33;;;2.50;;
3769;SDS011;1900;48.890;9.190;2022-08-14T09:09:28;6.60;;;2.77;;
3769;SDS011;1900;48.890;9.190;2022-08-14T09:11:56;2.97;;;2.67;;
3769;SDS011;1900;48.890;9.190;2022-08-14T09:14:25;2.80;;;2.60;;
3769;SDS011;1900;48.890;9.190;2022-08-14T09:16:53;9.07;;;2.90;;
3769;SDS011;1900;48.890;9.190;2022-08-14T09:19:20;3.83;;;2.60;;
3769;SDS011;1900;48.890;9.190;2022-08-14T09:21:46;3.27;;;2.97;;
3769;SDS011;1900;48.890;9.190;2022-08-14T09:24:12;2.50;;;2.30;;
3769;SDS011;1900;48.890;9.190;2022-08-14T09:26:39;3.50;;;2.27;;
3769;SDS011;1900;48.890;9.190;2022-08-14T09:29:06;2.77;;;2.57;;
3769;SDS011;1900;48.890;9.190;2022-08-14T09:31:33;3.60;;;2.80;;
3769;SDS011;1900;48.890;9.190;2022-08-14T09:39:42;3.20;;;2.87;;
3769;SDS011;1900;48.890;9.190;2022-08-14T09:42:37;3.63;;;3.33;;
3769;SDS011;1900;48.890;9.190;2022-08-14T09:50:43;3.43;;;2.73;;
3769;SDS011;1900;48.890;9.190;2022-08-14T09:53:10;2.77;;;2.57;;
3769;SDS011;1900;48.890;9.190;2022-08-14T09:55:40;4.00;;;3.13;;
3769;SDS011;1900;48.890;9.190;2022-08-14T10:00:55;4.27;;;2.83;;
3769;SDS011;1900;48.890;9.190;2022-08-14T10:03:31;4.57;;;3.47;;
3769;SDS011;1900;48.890;9.190;2022-08-14T10:08:40;3.50;;;3.20;;
3769;SDS011;1900;48.890;9.190;2022-08-14T10:11:13;4.00;;;3.20;;
3769;SDS011;1900;48.890;9.190;2022-08-14T10:13:43;3.53;;;2.73;;
3769;SDS011;1900;48.890;9.190;2022-08-14T10:16:10;3.50;;;3.13;;
3769;SDS011;1900;48.890;9.190;2022-08-14T10:18:37;4.47;;;2.73;;
3769;SDS011;1900;48.890;9.190;2022-08-14T10:21:04;4.23;;;2.90;;
3769;SDS011;1900;48.890;9.190;2022-08-14T10:24:08;4.40;;;3.20;;
3769;SDS011;1900;48.890;9.190;2022-08-14T10:26:25;3.80;;;3.30;;
3769;SDS011;1900;48.890;9.190;2022-08-14T10:28:52;3.40;;;3.10;;
3769;SDS011;1900;48.890;9.190;2022-08-14T10:31:19;4.13;;;3.30;;
3769;SDS011;1900;48.890;9.190;2022-08-14T10:36:38;4.73;;;2.90;;
3769;SDS011;1900;48.890;9.190;2022-08-14T10:39:07;5.50;;;3.03;;
3769;SDS011;1900;48.890;9.190;2022-08-14T10:41:40;4.10;;;3.40;;
3769;SDS011;1900;48.890;9.190;2022-08-14T10:44:14;3.53;;;2.83;;
3769;SDS011;1900;48.890;9.190;2022-08-14T10:46:51;4.57;;;2.83;;
3769;SDS011;1900;48.890;9.190;2022-08-14T10:49:37;4.33;;;3.00;;
3769;SDS011;1900;48.890;9.190;2022-08-14T10:52:22;6.43;;;3.80;;
3769;SDS011;1900;48.890;9.190;2022-08-14T10:54:49;4.13;;;2.90;;
3769;SDS011;1900;48.890;9.190;2022-08-14T10:57:22;6.70;;;3.40;;
3769;SDS011;1900;48.890;9.190;2022-08-14T10:59:53;7.53;;;3.40;;
3769;SDS011;1900;48.890;9.190;2022-08-14T11:02:32;3.87;;;3.30;;
3769;SDS011;1900;48.890;9.190;2022-08-14T11:10:24;3.08;;;2.88;;
3769;SDS011;1900;48.890;9.190;2022-08-14T11:13:02;2.67;;;2.47;;
3769;SDS011;1900;48.890;9.190;2022-08-14T11:15:29;2.97;;;2.78;;
3769;SDS011;1900;48.890;9.190;2022-08-14T11:17:55;3.17;;;2.83;;
3769;SDS011;1900;48.890;9.190;2022-08-14T11:20:24;4.07;;;3.00;;
3769;SDS011;1900;48.890;9.190;2022-08-14T11:22:52;5.45;;;3.72;;
3769;SDS011;1900;48.890;9.190;2022-08-14T11:25:22;4.78;;;3.47;;
3769;SDS011;1900;48.890;9.190;2022-08-14T11:27:49;6.18;;;3.35;;
3769;SDS011;1900;48.890;9.190;2022-08-14T11:30:18;3.15;;;2.95;;
3769;SDS011;1900;48.890;9.190;2022-08-14T11:32:46;4.65;;;3.22;;
3769;SDS011;1900;48.890;9.190;2022-08-14T11:35:13;4.20;;;2.70;;
3769;SDS011;1900;48.890;9.190;2022-08-14T11:38:00;4.95;;;3.10;;
3769;SDS011;1900;48.890;9.190;2022-08-14T11:40:28;3.47;;;2.80;;
3769;SDS011;1900;48.890;9.190;2022-08-14T11:42:56;4.35;;;3.33;;
3769;SDS011;1900;48.890;9.190;2022-08-14T11:45:23;3.47;;;3.17;;
3769;SDS011;1900;48.890;9.190;2022-08-14T11:47:51;4.15;;;3.42;;
3769;SDS011;1900;48.890;9.190;2022-08-14T11:50:23;3.70;;;3.30;;
3769;SDS011;1900;48.890;9.190;2022-08-14T11:52:51;4.05;;;3.08;;
3769;SDS011;1900;48.890;9.190;2022-08-14T11:55:20;3.10;;;2.80;;
3769;SDS011;1900;48.890;9.190;2022-08-14T11:57:46;3.50;;;3.20;;
3769;SDS011;1900;48.890;9.190;2022-08-14T12:00:13;3.28;;;3.00;;
3769;SDS011;1900;48.890;9.190;2022-08-14T12:02:50;3.08;;;2.80;;
3769;SDS011;1900;48.890;9.190;2022-08-14T12:05:26;3.35;;;3.05;;
3769;SDS011;1900;48.890;9.190;2022-08-14T12:08:06;2.60;;;2.40;;
3769;SDS011;1900;48.890;9.190;2022-08-14T12:10:33;3.25;;;2.80;;
3769;SDS011;1900;48.890;9.190;2022-08-14T12:15:43;6.30;;;3.08;;
3769;SDS011;1900;48.890;9.190;2022-08-14T12:20:56;6.85;;;3.08;;
3769;SDS011;1900;48.890;9.190;2022-08-14T12:23:23;2.85;;;2.65;;
3769;SDS011;1900;48.890;9.190;2022-08-14T12:26:03;2.88;;;2.55;;
3769;SDS011;1900;48.890;9.190;2022-08-14T12:28:30;2.72;;;2.50;;
3769;SDS011;1900;48.890;9.190;2022-08-14T12:30:56;3.85;;;2.70;;
3769;SDS011;1900;48.890;9.190;2022-08-14T12:35:55;5.32;;;2.33;;
3769;SDS011;1900;48.890;9.190;2022-08-14T12:40:57;2.80;;;2.50;;
3769;SDS011;1900;48.890;9.190;2022-08-14T12:43:25;3.10;;;2.83;;
3769;SDS011;1900;48.890;9.190;2022-08-14T12:45:52;4.05;;;2.60;;
3769;SDS011;1900;48.890;9.190;2022-08-14T12:48:22;2.90;;;2.70;;
3769;SDS011;1900;48.890;9.190;2022-08-14T12:50:49;3.58;;;3.28;;
3769;SDS011;1900;48.890;9.190;2022-08-14T12:53:18;3.00;;;2.55;;
3769;SDS011;1900;48.890;9.190;2022-08-14T12:55:45;3.08;;;2.78;;
3769;SDS011;1900;48.890;9.190;2022-08-14T12:58:24;4.30;;;2.30;;
3769;SDS011;1900;48.890;9.190;2022-08-14T13:00:53;6.13;;;2.53;;
3769;SDS011;1900;48.890;9.190;2022-08-14T13:03:24;5.80;;;3.08;;
3769;SDS011;1900;48.890;9.190;2022-08-14T13:05:51;2.50;;;2.30;;
3769;SDS011;1900;48.890;9.190;2022-08-14T13:08:18;3.90;;;2.38;;
3769;SDS011;1900;48.890;9.190;2022-08-14T13:10:44;3.33;;;2.60;;
3769;SDS011;1900;48.890;9.190;2022-08-14T13:13:12;3.83;;;2.75;;
3769;SDS011;1900;48.890;9.190;2022-08-14T13:15:42;11.93;;;2.53;;
3769;SDS011;1900;48.890;9.190;2022-08-14T13:18:13;4.07;;;2.90;;
3769;SDS011;1900;48.890;9.190;2022-08-14T13:20:40;2.40;;;2.30;;
3769;SDS011;1900;48.890;9.190;2022-08-14T13:23:06;2.95;;;2.75;;
3769;SDS011;1900;48.890;9.190;2022-08-14T13:25:33;2.55;;;2.35;;
3769;SDS011;1900;48.890;9.190;2022-08-14T13:28:02;3.05;;;2.17;;
3769;SDS011;1900;48.890;9.190;2022-08-14T13:30:30;2.85;;;2.20;;
3769;SDS011;1900;48.890;9.190;2022-08-14T13:32:56;2.03;;;1.92;;
3769;SDS011;1900;48.890;9.190;2022-08-14T13:35:23;3.35;;;2.13;;
3769;SDS011;1900;48.890;9.190;2022-08-14T13:37:49;2.55;;;2.38;;
3769;SDS011;1900;48.890;9.190;2022-08-14T13:40:16;2.40;;;2.20;;
3769;SDS011;1900;48.890;9.190;2022-08-14T13:42:45;2.45;;;2.25;;
3769;SDS011;1900;48.890;9.190;2022-08-14T13:45:12;2.85;;;2.30;;
3769;SDS011;1900;48.890;9.190;2022-08-14T13:47:39;2.40;;;2.20;;
3769;SDS011;1900;48.890;9.190;2022-08-14T13:50:07;2.10;;;2.00;;
3769;SDS011;1900;48.890;9.190;2022-08-14T13:52:43;1.70;;;1.60;;
3769;SDS011;1900;48.890;9.190;2022-08-14T13:55:17;2.40;;;2.17;;
3769;SDS011;1900;48.890;9.190;2022-08-14T13:57:44;1.90;;;1.80;;
3769;SDS011;1900;48.890;9.190;2022-08-14T14:00:12;2.20;;;2.00;;
3769;SDS011;1900;48.890;9.190;2022-08-14T14:02:40;2.33;;;2.00;;
3769;SDS011;1900;48.890;9.190;2022-08-14T14:05:07;2.30;;;2.10;;
3769;SDS011;1900;48.890;9.190;2022-08-14T14:07:36;2.00;;;1.90;;
3769;SDS011;1900;48.890;9.190;2022-08-14T14:10:05;2.55;;;2.03;;
3769;SDS011;1900;48.890;9.190;2022-08-14T14:12:33;1.95;;;1.85;;
3769;SDS011;1900;48.890;9.190;2022-08-14T14:15:02;2.33;;;2.15;;
3769;SDS011;1900;48.890;9.190;2022-08-14T14:17:29;2.83;;;2.10;;
3769;SDS011;1900;48.890;9.190;2022-08-14T14:19:55;2.00;;;1.90;;
3769;SDS011;1900;48.890;9.190;2022-08-14T14:22:22;1.70;;;1.60;;
3769;SDS011;1900;48.890;9.190;2022-08-14T14:24:51;1.88;;;1.77;;
3769;SDS011;1900;48.890;9.190;2022-08-14T14:27:17;1.80;;;1.70;;
3769;SDS011;1900;48.890;9.190;2022-08-14T14:29:44;1.85;;;1.75;;
3769;SDS011;1900;48.890;9.190;2022-08-14T14:32:13;2.28;;;1.83;;
3769;SDS011;1900;48.890;9.190;2022-08-14T14:34:41;2.00;;;1.90;;
3769;SDS011;1900;48.890;9.190;2022-08-14T14:37:10;2.70;;;2.40;;
3769;SDS011;1900;48.890;9.190;2022-08-14T14:39:38;1.95;;;1.80;;
3769;SDS011;1900;48.890;9.190;2022-08-14T14:42:05;2.75;;;2.10;;
3769;SDS011;1900;48.890;9.190;2022-08-14T14:44:38;3.17;;;1.90;;
3769;SDS011;1900;48.890;9.190;2022-08-14T14:47:11;2.35;;;2.00;;
3769;SDS011;1900;48.890;9.190;2022-08-14T14:49:40;2.00;;;1.90;;
3769;SDS011;1900;48.890;9.190;2022-08-14T14:52:07;3.05;;;2.30;;
3769;SDS011;1900;48.890;9.190;2022-08-14T14:54:34;2.42;;;2.00;;
3769;SDS011;1900;48.890;9.190;2022-08-14T14:57:00;2.42;;;2.22;;
3769;SDS011;1900;48.890;9.190;2022-08-14T14:59:27;2.03;;;1.83;;
3769;SDS011;1900;48.890;9.190;2022-08-14T15:01:58;2.67;;;1.60;;
3769;SDS011;1900;48.890;9.190;2022-08-14T15:04:26;1.85;;;1.75;;
3769;SDS011;1900;48.890;9.190;2022-08-14T15:06:52;1.90;;;1.80;;
3769;SDS011;1900;48.890;9.190;2022-08-14T15:09:18;2.08;;;1.98;;
3769;SDS011;1900;48.890;9.190;2022-08-14T15:11:44;2.35;;;2.10;;
3769;SDS011;1900;48.890;9.190;2022-08-14T15:14:10;2.42;;;1.83;;
3769;SDS011;1900;48.890;9.190;2022-08-14T15:16:36;1.77;;;1.67;;
3769;SDS011;1900;48.890;9.190;2022-08-14T15:19:02;2.92;;;1.73;;
3769;SDS011;1900;48.890;9.190;2022-08-14T15:21:29;2.08;;;1.88;;
3769;SDS011;1900;48.890;9.190;2022-08-14T15:23:55;5.50;;;1.95;;
3769;SDS011;1900;48.890;9.190;2022-08-14T15:26:23;2.10;;;2.00;;
3769;SDS011;1900;48.890;9.190;2022-08-14T15:28:49;2.30;;;2.10;;
3769;SDS011;1900;48.890;9.190;2022-08-14T15:31:16;2.03;;;1.88;;
3769;SDS011;1900;48.890;9.190;2022-08-14T15:33:42;3.30;;;1.90;;
3769;SDS011;1900;48.890;9.190;2022-08-14T15:36:26;2.80;;;2.10;;
3769;SDS011;1900;48.890;9.190;2022-08-14T15:38:53;2.17;;;2.08;;
3769;SDS011;1900;48.890;9.190;2022-08-14T15:41:19;2.75;;;2.20;;
3769;SDS011;1900;48.890;9.190;2022-08-14T15:43:46;2.20;;;2.10;;
3769;SDS011;1900;48.890;9.190;2022-08-14T15:46:11;1.98;;;1.88;;
3769;SDS011;1900;48.890;9.190;2022-08-14T15:48:37;2.17;;;1.98;;
3769;SDS011;1900;48.890;9.190;2022-08-14T15:51:03;2.95;;;1.77;;
3769;SDS011;1900;48.890;9.190;2022-08-14T15:53:29;1.90;;;1.80;;
3769;SDS011;1900;48.890;9.190;2022-08-14T15:55:55;2.83;;;2.17;;
3769;SDS011;1900;48.890;9.190;2022-08-14T15:58:21;1.90;;;1.77;;
3769;SDS011;1900;48.890;9.190;2022-08-14T16:00:48;3.22;;;1.83;;
3769;SDS011;1900;48.890;9.190;2022-08-14T16:03:32;2.35;;;1.48;;
3769;SDS011;1900;48.890;9.190;2022-08-14T16:05:58;2.15;;;1.95;;